Time;durP1;ratioP1;P1;durP2;ratioP2;P2;SDS_P1;SDS_P2;PMS_P1;PMS_P2;Temp;Humidity;BMP_temperature;BMP_pressure;BME280_temperature;BME280_humidity;BME280_pressure;Samples;Min_cycle;Max_cycle;Signal;HPM_P1;HPM_P2
2023/10/07 00:02:13;;;;;;;12.10;6.07;;;8.70;99.90;;;;;;5094397;28;20380;-65
2023/10/07 00:04:44;;;;;;;12.27;5.15;;;8.70;99.90;;;;;;5095322;28;20028;-65
2023/10/07 00:07:11;;;;;;;14.52;5.47;;;8.70;99.90;;;;;;5095352;28;20059;-65
2023/10/07 00:09:41;;;;;;;9.55;5.47;;;8.70;99.90;;;;;;5095537;28;20032;-66
2023/10/07 00:12:14;;;;;;;12.98;5.47;;;8.70;99.90;;;;;;5093684;28;20035;-65
2023/10/07 00:14:43;;;;;;;12.57;6.00;;;8.70;99.90;;;;;;5095291;28;20139;-65
2023/10/07 00:17:16;;;;;;;;;;;8.70;99.90;;;;;;5095437;28;20028;-65
2023/10/07 00:19:44;;;;;;;8.77;5.50;;;8.70;99.90;;;;;;5093750;28;19915;-65
2023/10/07 00:22:13;;;;;;;10.75;6.15;;;8.70;99.90;;;;;;5094966;28;20384;-65
2023/10/07 00:24:43;;;;;;;12.82;5.38;;;8.80;99.90;;;;;;5095175;28;20062;-65
2023/10/07 00:27:26;;;;;;;11.35;5.40;;;8.80;99.90;;;;;;5093667;28;20039;-65
2023/10/07 00:29:54;;;;;;;12.98;5.53;;;8.80;99.90;;;;;;5095190;28;20023;-65
2023/10/07 00:32:26;;;;;;;16.92;5.97;;;8.80;99.90;;;;;;5080608;28;20048;-65
2023/10/07 00:34:59;;;;;;;15.70;5.85;;;8.70;99.90;;;;;;5074546;28;20025;-65
2023/10/07 00:37:26;;;;;;;10.38;5.53;;;8.80;99.90;;;;;;5056669;28;20031;-65
2023/10/07 00:39:53;;;;;;;10.00;5.15;;;8.80;99.90;;;;;;5074733;28;20033;-65
2023/10/07 00:42:19;;;;;;;11.65;5.10;;;8.90;99.90;;;;;;5074304;28;20082;-65
2023/10/07 00:44:47;;;;;;;11.75;6.03;;;8.90;99.90;;;;;;5074312;28;20032;-65
2023/10/07 00:47:14;;;;;;;10.82;5.40;;;8.90;99.90;;;;;;5074249;28;20029;-65
2023/10/07 00:49:50;;;;;;;13.57;5.55;;;8.90;99.90;;;;;;5056386;28;20494;-65
2023/10/07 00:54:51;;;;;;;10.02;5.18;;;9.00;99.90;;;;;;5074315;28;20107;-65
2023/10/07 00:57:24;;;;;;;10.07;5.43;;;9.10;99.90;;;;;;5074039;28;20025;-65
2023/10/07 00:59:51;;;;;;;12.25;5.68;;;9.20;99.90;;;;;;5056179;28;20028;-65
2023/10/07 01:02:33;;;;;;;9.38;5.15;;;9.20;99.90;;;;;;5056077;28;20123;-65
2023/10/07 01:05:06;;;;;;;13.30;5.32;;;9.30;99.90;;;;;;5074086;28;20104;-65
2023/10/07 01:07:34;;;;;;;14.13;5.38;;;9.40;99.90;;;;;;5074041;28;20021;-65
2023/10/07 01:12:39;;;;;;;11.63;6.43;;;9.50;99.90;;;;;;5073947;28;20056;-65
2023/10/07 01:15:24;;;;;;;9.60;5.55;;;9.80;99.90;;;;;;5073867;28;20021;-65
2023/10/07 01:17:57;;;;;;;13.43;5.28;;;10.10;99.90;;;;;;5056132;28;20392;-65
2023/10/07 01:23:08;;;;;;;20.25;7.28;;;10.50;99.90;;;;;;5073863;28;20061;-65
2023/10/07 01:25:36;;;;;;;15.63;6.10;;;10.90;99.90;;;;;;5073736;28;20020;-65
2023/10/07 01:28:04;;;;;;;14.60;7.40;;;11.10;99.90;;;;;;5055779;28;20464;-65
2023/10/07 01:30:34;;;;;;;12.20;6.63;;;11.20;99.90;;;;;;5073698;28;20040;-65
2023/10/07 01:33:24;;;;;;;12.75;5.50;;;11.40;99.90;;;;;;5074192;28;20055;-65
2023/10/07 01:38:40;;;;;;;14.55;6.75;;;11.90;99.90;;;;;;5073535;28;20036;-65
2023/10/07 01:41:07;;;;;;;13.57;7.00;;;12.10;99.90;;;;;;5073768;28;20024;-65
2023/10/07 01:43:48;;;;;;;16.42;7.18;;;12.20;99.90;;;;;;5056580;28;20026;-66
2023/10/07 01:46:19;;;;;;;15.95;6.90;;;12.40;99.90;;;;;;5077756;28;20028;-65
2023/10/07 01:48:55;;;;;;;17.63;7.28;;;12.50;99.90;;;;;;5077735;28;20114;-65
2023/10/07 01:51:21;;;;;;;16.70;6.47;;;12.60;99.90;;;;;;5077963;28;20028;-66
2023/10/07 01:53:47;;;;;;;17.48;7.18;;;12.70;99.90;;;;;;5077599;28;20111;-65
2023/10/07 01:56:16;;;;;;;19.08;6.25;;;12.90;99.90;;;;;;5077432;28;20103;-68
2023/10/07 01:58:41;;;;;;;11.90;6.00;;;13.00;99.90;;;;;;5077490;28;20032;-66
2023/10/07 02:01:07;;;;;;;14.65;6.55;;;13.00;99.90;;;;;;5059521;28;20090;-65
2023/10/07 02:03:33;;;;;;;13.32;6.10;;;13.00;99.90;;;;;;5077478;28;20027;-66
2023/10/07 02:05:59;;;;;;;14.20;5.82;;;12.90;99.90;;;;;;5077289;28;20029;-66
2023/10/07 02:08:25;;;;;;;16.02;6.25;;;12.90;99.90;;;;;;5077293;28;20420;-66
2023/10/07 02:10:59;;;;;;;16.88;7.43;;;12.90;99.90;;;;;;5077222;28;20120;-66
2023/10/07 02:13:29;;;;;;;17.23;6.75;;;12.90;99.90;;;;;;5077420;28;20025;-65
2023/10/07 02:15:55;;;;;;;11.82;6.68;;;12.90;99.90;;;;;;5077331;28;20126;-65
2023/10/07 02:18:22;;;;;;;15.68;7.43;;;12.90;99.90;;;;;;5077629;28;20029;-66
2023/10/07 02:20:53;;;;;;;12.23;6.45;;;13.00;99.90;;;;;;5077132;28;20028;-65
2023/10/07 02:23:37;;;;;;;12.43;6.65;;;13.20;99.90;;;;;;5077012;28;20029;-65
2023/10/07 02:26:06;;;;;;;15.23;6.72;;;13.30;99.90;;;;;;5077239;28;20032;-65
2023/10/07 02:28:33;;;;;;;;;;;13.30;99.90;;;;;;5077650;28;20021;-66
2023/10/07 02:31:07;;;;;;;14.25;6.35;;;13.40;99.90;;;;;;5076851;28;19964;-66
2023/10/07 02:33:42;;;;;;;13.70;6.32;;;13.40;99.90;;;;;;5076818;28;20021;-66
2023/10/07 02:36:14;;;;;;;13.80;6.07;;;13.40;99.90;;;;;;5076849;28;20071;-65
2023/10/07 02:38:43;;;;;;;11.02;5.68;;;13.40;99.90;;;;;;5076945;28;20037;-66
2023/10/07 02:41:17;;;;;;;19.15;5.82;;;13.30;99.90;;;;;;5058618;28;20032;-66
2023/10/07 02:43:48;;;;;;;11.35;5.93;;;13.30;99.90;;;;;;5059157;28;20082;-66
2023/10/07 02:46:31;;;;;;;10.18;5.13;;;13.30;99.90;;;;;;5076599;28;20036;-66
2023/10/07 02:49:10;;;;;;;14.05;5.30;;;13.30;99.90;;;;;;5076510;28;20105;-66
2023/10/07 02:51:39;;;;;;;12.67;5.53;;;13.10;99.90;;;;;;5076505;28;20372;-65
2023/10/07 02:54:18;;;;;;;12.27;5.30;;;13.00;99.90;;;;;;5075832;28;20017;-66
2023/10/07 02:56:55;;;;;;;13.60;5.70;;;12.90;99.90;;;;;;5076729;28;20029;-65
2023/10/07 02:59:29;;;;;;;15.00;5.97;;;12.90;99.90;;;;;;5076407;28;20028;-65
2023/10/07 03:07:34;;;;;;;13.10;6.15;;;13.10;99.90;;;;;;5076290;28;20032;-66
2023/10/07 03:10:19;;;;;;;9.88;5.50;;;13.20;99.90;;;;;;5058128;28;20119;-65
2023/10/07 03:12:49;;;;;;;11.07;5.45;;;13.30;99.90;;;;;;5076277;28;20029;-65
2023/10/07 03:15:28;;;;;;;18.58;5.28;;;13.40;99.90;;;;;;5058072;28;20036;-66
2023/10/07 03:17:55;;;;;;;12.00;5.43;;;13.50;99.90;;;;;;5058763;28;20384;-66
2023/10/07 03:20:28;;;;;;;11.98;4.82;;;13.60;99.90;;;;;;5075949;28;20453;-66
2023/10/07 03:23:14;;;;;;;13.60;5.65;;;13.50;99.90;;;;;;5076058;28;20073;-66
2023/10/07 03:28:23;;;;;;;11.40;4.70;;;13.70;99.90;;;;;;5075792;28;20114;-65
2023/10/07 03:30:52;;;;;;;7.85;4.65;;;13.90;99.90;;;;;;5075541;28;20032;-66
2023/10/07 03:33:23;;;;;;;7.18;3.70;;;14.10;99.90;;;;;;5058250;28;20047;-66
2023/10/07 03:38:25;;;;;;;8.70;3.67;;;14.40;99.90;;;;;;5075916;28;20032;-66
2023/10/07 03:40:54;;;;;;;8.63;4.03;;;14.60;99.90;;;;;;5079650;28;20024;-66
2023/10/07 03:43:26;;;;;;;8.95;4.32;;;14.60;99.90;;;;;;5078861;28;20028;-66
2023/10/07 03:45:55;;;;;;;9.23;4.60;;;14.60;99.90;;;;;;5060111;28;20033;-66
2023/10/07 03:48:24;;;;;;;8.27;4.32;;;14.70;99.90;;;;;;5075470;28;20044;-66
2023/10/07 03:51:04;;;;;;;7.38;3.88;;;14.90;99.90;;;;;;5075385;28;20063;-65
2023/10/07 03:53:44;;;;;;;6.57;3.60;;;15.00;99.90;;;;;;5075393;28;20029;-65
2023/10/07 03:56:13;;;;;;;8.95;3.63;;;15.00;99.90;;;;;;5075055;28;20366;-65
2023/10/07 03:58:41;;;;;;;;;;;15.20;99.90;;;;;;5075653;28;20107;-65
2023/10/07 04:01:17;;;;;;;7.82;4.03;;;15.30;99.90;;;;;;5057264;28;19904;-66
2023/10/07 04:03:52;;;;;;;7.15;3.60;;;15.40;99.90;;;;;;5075547;28;20480;-65
2023/10/07 04:06:30;;;;;;;7.18;3.70;;;15.40;99.90;;;;;;5074095;28;20487;-65
2023/10/07 04:09:05;;;;;;;5.38;3.17;;;15.50;99.90;;;;;;5075240;28;20028;-66
2023/10/07 04:11:36;;;;;;;10.82;3.88;;;15.50;99.90;;;;;;5075034;28;20097;-65
2023/10/07 04:14:19;;;;;;;9.02;3.53;;;15.60;99.90;;;;;;5057269;28;20066;-65
2023/10/07 04:16:48;;;;;;;8.05;3.97;;;15.60;99.90;;;;;;5057048;28;20443;-65
2023/10/07 04:21:45;;;;;;;7.47;3.25;;;15.60;99.90;;;;;;5074770;28;20044;-65
2023/10/07 04:24:12;;;;;;;7.05;3.50;;;15.60;99.90;;;;;;5057070;28;20115;-65
2023/10/07 04:26:51;;;;;;;6.43;3.03;;;15.60;99.90;;;;;;5074630;28;20087;-65
2023/10/07 04:29:18;;;;;;;4.55;2.80;;;15.60;99.90;;;;;;5056716;28;20028;-65
2023/10/07 04:31:53;;;;;;;5.47;3.13;;;15.60;99.90;;;;;;5074560;28;20488;-65
2023/10/07 04:34:20;;;;;;;6.22;3.13;;;15.60;99.90;;;;;;5056733;28;20024;-66
2023/10/07 04:39:27;;;;;;;10.63;3.15;;;15.60;99.90;;;;;;5074437;28;20033;-65
2023/10/07 04:41:59;;;;;;;5.32;2.88;;;15.60;99.90;;;;;;5074606;28;20016;-65
2023/10/07 04:50:18;;;;;;;4.75;2.45;;;15.70;99.90;;;;;;5074208;28;20029;-65
2023/10/07 04:52:51;;;;;;;5.03;2.42;;;15.80;99.90;;;;;;5073455;28;20123;-65
2023/10/07 04:55:26;;;;;;;5.63;2.40;;;15.80;99.90;;;;;;5074254;28;20027;-65
2023/10/07 05:03:16;;;;;;;5.00;2.53;;;15.70;99.90;;;;;;5060720;28;20033;-65
2023/10/07 05:05:43;;;;;;;6.28;2.33;;;15.80;99.90;;;;;;5074022;28;20082;-65
2023/10/07 05:08:16;;;;;;;5.10;2.85;;;15.80;99.90;;;;;;5056000;28;20456;-65
2023/10/07 05:10:43;;;;;;;6.10;2.85;;;15.80;99.90;;;;;;5074144;28;20020;-65
2023/10/07 05:13:10;;;;;;;7.15;2.75;;;15.70;99.90;;;;;;5073908;28;20021;-65
2023/10/07 05:15:39;;;;;;;5.60;2.47;;;15.70;99.90;;;;;;5073888;28;20028;-65
2023/10/07 05:18:13;;;;;;;5.65;2.60;;;15.70;99.90;;;;;;5073693;28;20028;-65
2023/10/07 05:20:41;;;;;;;6.22;2.67;;;15.70;99.90;;;;;;5073862;28;20085;-65
2023/10/07 05:23:07;;;;;;;4.80;2.90;;;15.70;99.90;;;;;;5055684;28;20028;-65
2023/10/07 05:25:38;;;;;;;6.18;3.25;;;15.60;99.90;;;;;;5073468;28;20070;-65
2023/10/07 05:28:10;;;;;;;3.70;2.45;;;15.60;99.90;;;;;;5073983;28;20025;-65
2023/10/07 05:30:50;;;;;;;7.10;2.88;;;15.60;99.90;;;;;;5073814;28;20487;-65
2023/10/07 05:33:20;;;;;;;5.80;2.42;;;15.60;99.90;;;;;;5073694;28;20086;-65
2023/10/07 05:35:49;;;;;;;6.45;2.67;;;15.50;99.90;;;;;;5055744;28;20028;-65
2023/10/07 05:38:17;;;;;;;7.03;3.03;;;15.50;99.90;;;;;;5073309;28;20538;-65
2023/10/07 05:40:42;;;;;;;7.25;2.65;;;15.50;99.90;;;;;;5055557;28;20491;-65
2023/10/07 05:43:08;;;;;;;5.55;2.67;;;15.50;99.90;;;;;;5073815;28;20029;-65
2023/10/07 05:45:35;;;;;;;6.20;2.70;;;15.50;99.90;;;;;;5073603;28;20028;-65
2023/10/07 05:48:03;;;;;;;5.07;2.47;;;15.50;99.90;;;;;;5073478;28;20021;-65
2023/10/07 05:50:32;;;;;;;5.18;2.88;;;15.50;99.90;;;;;;5055434;28;20037;-65
2023/10/07 05:53:04;;;;;;;5.10;2.80;;;15.50;99.90;;;;;;5055477;28;20448;-65
2023/10/07 05:55:30;;;;;;;5.28;2.42;;;15.50;99.90;;;;;;5055715;28;20029;-65
2023/10/07 05:57:58;;;;;;;7.55;2.60;;;15.60;99.90;;;;;;5073469;28;20097;-65
2023/10/07 06:00:25;;;;;;;7.60;2.53;;;15.70;99.90;;;;;;5073476;28;20027;-65
2023/10/07 06:02:53;;;;;;;4.95;2.80;;;15.70;99.90;;;;;;5073390;28;20029;-66
2023/10/07 06:05:27;;;;;;;10.05;2.85;;;15.80;99.90;;;;;;5073427;28;20025;-66
2023/10/07 06:07:57;;;;;;;9.55;3.00;;;15.90;99.90;;;;;;5073354;28;20032;-66
2023/10/07 06:10:24;;;;;;;6.82;2.92;;;15.90;99.90;;;;;;5073288;28;20021;-66
2023/10/07 06:12:55;;;;;;;6.05;2.83;;;16.00;99.90;;;;;;5073849;28;20031;-66
2023/10/07 06:15:24;;;;;;;6.20;2.63;;;16.10;99.90;;;;;;5072998;28;20135;-66
2023/10/07 06:17:50;;;;;;;6.97;2.67;;;16.30;99.90;;;;;;5073143;28;20041;-65
2023/10/07 06:20:16;;;;;;;4.78;2.85;;;16.40;99.90;;;;;;5072891;28;20143;-65
2023/10/07 06:22:46;;;;;;;5.47;2.92;;;16.50;99.90;;;;;;5073350;28;20483;-65
2023/10/07 06:25:12;;;;;;;6.40;2.60;;;16.50;99.90;;;;;;5073165;28;20516;-66
2023/10/07 06:27:40;;;;;;;5.13;2.83;;;16.50;99.90;;;;;;5073110;28;20061;-66
2023/10/07 06:30:09;;;;;;;8.80;3.80;;;16.50;99.90;;;;;;5056764;28;20050;-66
2023/10/07 06:32:45;;;;;;;7.80;3.25;;;16.50;99.90;;;;;;5086742;28;20519;-57
2023/10/07 06:35:14;;;;;;;7.90;3.00;;;16.60;99.90;;;;;;5097040;28;20031;-58
2023/10/07 06:37:40;;;;;;;;;;;16.90;99.90;;;;;;5097092;28;20085;-66
2023/10/07 06:40:24;;;;;;;14.25;4.30;;;17.00;99.90;;;;;;5096890;28;19908;-67
2023/10/07 06:42:52;;;;;;;9.30;3.42;;;17.00;99.90;;;;;;5096239;28;20379;-66
2023/10/07 06:45:20;;;;;;;8.77;4.00;;;17.00;99.90;;;;;;5096769;28;20032;-66
2023/10/07 06:47:46;;;;;;;6.63;3.58;;;17.10;99.90;;;;;;5097215;28;20383;-66
2023/10/07 06:50:17;;;;;;;7.38;3.90;;;17.20;99.90;;;;;;5096675;28;20024;-66
2023/10/07 06:52:44;;;;;;;6.57;3.65;;;17.30;99.90;;;;;;5096652;28;20020;-66
2023/10/07 06:55:11;;;;;;;4.75;3.08;;;17.30;99.90;;;;;;5096198;28;20399;-66
2023/10/07 06:57:37;;;;;;;7.40;3.67;;;17.30;99.90;;;;;;5096674;28;20034;-66
2023/10/07 07:00:11;;;;;;;7.93;3.75;;;17.40;99.90;;;;;;5091602;28;20025;-67
2023/10/07 07:02:40;;;;;;;10.00;3.60;;;17.50;99.90;;;;;;5076542;28;20452;-66
2023/10/07 07:05:12;;;;;;;6.68;3.65;;;17.40;99.90;;;;;;5075864;28;20435;-66
2023/10/07 07:07:38;;;;;;;8.55;3.95;;;17.60;99.90;;;;;;5079246;28;20035;-67
2023/10/07 07:10:07;;;;;;;6.45;3.83;;;17.70;99.90;;;;;;5084970;28;20021;-66
2023/10/07 07:12:33;;;;;;;12.45;5.13;;;17.80;99.90;;;;;;5077115;28;20024;-66
2023/10/07 07:15:04;;;;;;;6.57;3.90;;;17.80;99.90;;;;;;5081759;28;20093;-67
2023/10/07 07:22:38;;;;;;;8.52;3.80;;;18.10;99.90;;;;;;5084322;28;20035;-67
2023/10/07 07:25:10;;;;;;;8.73;4.00;;;18.60;99.40;;;;;;5094186;28;20042;-66
2023/10/07 07:27:36;;;;;;;5.25;3.70;;;19.00;98.50;;;;;;5097074;28;20020;-67
2023/10/07 07:30:03;;;;;;;8.85;3.75;;;19.30;97.80;;;;;;5094962;28;20082;-67
2023/10/07 07:32:35;;;;;;;8.48;3.63;;;19.60;97.00;;;;;;5094346;28;20072;-66
2023/10/07 07:35:04;;;;;;;7.00;4.00;;;19.60;96.70;;;;;;5095352;28;20531;-66
2023/10/07 07:37:31;;;;;;;8.27;4.03;;;20.00;96.00;;;;;;5095659;28;20120;-66
2023/10/07 07:40:35;;;;;;;9.40;4.68;;;20.20;95.10;;;;;;5095659;28;20031;-67
2023/10/07 07:42:55;;;;;;;10.32;4.35;;;20.50;94.40;;;;;;5095321;28;20065;-67
2023/10/07 07:45:27;;;;;;;10.23;3.58;;;20.70;93.50;;;;;;5095246;28;20016;-62
2023/10/07 07:47:56;;;;;;;10.45;3.63;;;21.00;93.90;;;;;;5095847;28;20107;-62
2023/10/07 07:50:22;;;;;;;8.65;3.75;;;21.30;92.80;;;;;;5095426;28;20120;-65
2023/10/07 07:52:49;;;;;;;7.70;3.90;;;21.70;92.40;;;;;;5095687;28;20028;-65
2023/10/07 07:55:18;;;;;;;8.68;3.63;;;22.10;91.30;;;;;;5094293;28;20024;-65
2023/10/07 07:57:46;;;;;;;;;;;22.60;89.30;;;;;;5096063;28;20024;-69
2023/10/07 08:00:22;;;;;;;13.60;3.83;;;22.70;87.70;;;;;;5093982;28;19939;-61
2023/10/07 08:02:51;;;;;;;9.63;3.95;;;22.70;86.60;;;;;;5095088;28;20386;-62
2023/10/07 08:05:17;;;;;;;7.20;4.45;;;22.60;86.10;;;;;;5095294;28;20088;-56
2023/10/07 08:07:43;;;;;;;7.20;3.80;;;22.40;85.10;;;;;;5095119;28;20040;-62
2023/10/07 08:10:13;;;;;;;6.15;3.55;;;22.40;84.50;;;;;;5093940;28;20028;-62
2023/10/07 08:12:39;;;;;;;8.00;3.50;;;22.40;84.20;;;;;;5095130;28;20471;-58
2023/10/07 08:17:40;;;;;;;7.13;3.50;;;22.50;83.40;;;;;;5095077;28;20028;-58
2023/10/07 08:20:10;;;;;;;10.75;4.35;;;22.50;82.80;;;;;;5094916;28;20028;-66
2023/10/07 08:22:45;;;;;;;8.23;3.97;;;22.80;81.80;;;;;;5101211;28;20024;-66
2023/10/07 08:26:12;;;;;;;7.20;3.92;;;23.00;80.40;;;;;;5102463;28;20050;-66
2023/10/07 08:28:19;;;;;;;12.43;3.88;;;23.00;78.60;;;;;;5091694;28;20373;-66
2023/10/07 08:30:47;;;;;;;8.35;3.67;;;22.60;78.60;;;;;;5099234;28;20028;-66
2023/10/07 08:33:15;;;;;;;8.45;4.15;;;22.30;77.80;;;;;;5074796;28;20048;-66
2023/10/07 08:35:43;;;;;;;7.90;3.50;;;22.40;77.60;;;;;;5056659;28;20469;-66
2023/10/07 08:38:37;;;;;;;6.20;3.78;;;22.70;77.00;;;;;;5074527;28;20483;-66
2023/10/07 08:41:05;;;;;;;6.30;3.92;;;22.80;74.40;;;;;;5074274;28;20098;-66
2023/10/07 08:43:37;;;;;;;6.45;3.67;;;22.90;74.00;;;;;;5074149;28;20036;-67
2023/10/07 08:46:08;;;;;;;6.93;3.88;;;23.30;72.90;;;;;;5074507;28;20024;-66
2023/10/07 08:48:38;;;;;;;8.48;3.50;;;22.90;72.10;;;;;;5074281;28;20020;-66
2023/10/07 08:51:14;;;;;;;7.72;3.30;;;22.90;71.20;;;;;;5074569;28;20029;-66
2023/10/07 08:53:41;;;;;;;6.97;3.53;;;22.80;68.90;;;;;;5073888;28;20035;-66
2023/10/07 08:56:12;;;;;;;6.07;3.30;;;23.10;68.90;;;;;;5073983;28;20029;-67
2023/10/07 08:58:43;;;;;;;8.38;3.60;;;23.70;67.70;;;;;;5055964;28;20028;-64
2023/10/07 09:01:17;;;;;;;6.03;3.47;;;24.50;65.40;;;;;;5074211;28;20033;-64
2023/10/07 09:03:56;;;;;;;7.35;3.50;;;24.40;63.60;;;;;;5074146;28;20078;-64
2023/10/07 09:06:27;;;;;;;5.68;3.30;;;24.60;63.30;;;;;;5056363;28;20470;-67
2023/10/07 09:08:53;;;;;;;7.88;3.60;;;23.20;63.80;;;;;;5074262;28;20021;-67
2023/10/07 09:11:19;;;;;;;6.95;4.07;;;22.50;64.90;;;;;;5056162;28;20025;-66
2023/10/07 09:13:49;;;;;;;8.88;3.88;;;21.70;67.10;;;;;;5056405;28;20067;-67
2023/10/07 09:16:19;;;;;;;5.70;3.30;;;21.50;67.30;;;;;;5056260;28;20032;-66
2023/10/07 09:18:53;;;;;;;8.45;3.20;;;21.60;67.20;;;;;;5055891;28;20020;-67
2023/10/07 09:21:22;;;;;;;7.95;3.80;;;22.50;65.60;;;;;;5073902;28;20024;-67
2023/10/07 09:23:48;;;;;;;6.05;3.33;;;23.20;62.20;;;;;;5056116;28;20035;-66
2023/10/07 09:26:33;;;;;;;10.85;4.07;;;22.70;63.10;;;;;;5073728;28;20032;-66
2023/10/07 09:28:59;;;;;;;7.93;3.80;;;22.80;62.30;;;;;;5055742;28;20116;-66
2023/10/07 09:31:30;;;;;;;10.00;3.90;;;23.50;60.80;;;;;;5063595;28;20048;-64
2023/10/07 09:34:03;;;;;;;12.63;3.50;;;24.20;59.30;;;;;;5093871;28;20476;-64
2023/10/07 09:39:31;;;;;;;8.15;3.60;;;24.40;58.10;;;;;;5094013;28;20024;-64
2023/10/07 09:42:05;;;;;;;11.02;3.83;;;24.50;57.90;;;;;;5092795;28;20050;-65
2023/10/07 09:44:31;;;;;;;6.65;4.03;;;24.80;56.80;;;;;;5093857;28;20379;-65
2023/10/07 09:47:03;;;;;;;6.72;3.80;;;24.90;56.20;;;;;;5093547;28;20091;-64
2023/10/07 09:49:30;;;;;;;5.78;3.65;;;25.30;55.90;;;;;;5092510;28;20028;-64
2023/10/07 09:52:19;;;;;;;7.80;3.65;;;25.30;55.00;;;;;;5092547;28;20036;-64
2023/10/07 09:55:22;;;;;;;6.88;3.38;;;25.70;55.00;;;;;;5093946;28;20050;-64
2023/10/07 09:57:54;;;;;;;5.50;3.70;;;26.20;52.80;;;;;;5092769;28;20059;-64
2023/10/07 10:03:13;;;;;;;7.65;3.83;;;25.80;51.20;;;;;;5093882;28;20051;-64
2023/10/07 10:05:49;;;;;;;9.27;3.70;;;26.30;51.30;;;;;;5096522;28;20472;-64
2023/10/07 10:08:27;;;;;;;7.20;3.72;;;26.00;50.10;;;;;;5096533;28;20483;-66
2023/10/07 10:10:58;;;;;;;8.40;4.65;;;26.00;48.40;;;;;;5097725;28;20016;-64
2023/10/07 10:16:14;;;;;;;7.07;4.10;;;25.70;48.30;;;;;;5097381;28;20356;-65
2023/10/07 10:19:11;;;;;;;9.80;4.00;;;25.50;49.20;;;;;;5097429;28;20028;-65
2023/10/07 10:21:37;;;;;;;8.75;4.65;;;25.60;49.30;;;;;;5097219;28;20027;-64
2023/10/07 10:24:03;;;;;;;6.85;4.13;;;25.80;49.00;;;;;;5097217;28;20478;-64
2023/10/07 10:26:33;;;;;;;7.07;3.60;;;25.90;48.20;;;;;;5097690;28;20043;-65
2023/10/07 10:29:07;;;;;;;8.60;3.67;;;26.00;48.10;;;;;;5097360;28;20456;-67
2023/10/07 10:31:34;;;;;;;7.30;3.85;;;26.40;47.10;;;;;;5090038;28;20431;-65
2023/10/07 10:34:05;;;;;;;7.20;3.63;;;25.90;46.10;;;;;;5076929;28;20028;-64
2023/10/07 10:36:36;;;;;;;8.18;3.30;;;25.40;47.00;;;;;;5058724;28;20067;-64
2023/10/07 10:39:18;;;;;;;9.35;4.50;;;25.40;47.20;;;;;;5058842;28;20513;-64
2023/10/07 10:41:44;;;;;;;7.50;3.95;;;25.00;46.80;;;;;;5059260;28;20365;-65
2023/10/07 10:44:15;;;;;;;6.85;3.75;;;23.90;48.80;;;;;;5076945;28;20032;-66
2023/10/07 10:46:51;;;;;;;7.72;4.07;;;22.60;50.30;;;;;;5077412;28;20107;-66
2023/10/07 10:49:20;;;;;;;6.18;3.90;;;22.00;52.30;;;;;;5076478;28;20135;-66
2023/10/07 10:51:47;;;;;;;;;;;21.80;53.70;;;;;;5076933;28;20031;-66
2023/10/07 10:54:15;;;;;;;7.10;3.50;;;22.00;53.90;;;;;;5058511;28;20268;-66
2023/10/07 10:56:57;;;;;;;9.32;3.92;;;22.40;52.80;;;;;;5076262;28;20116;-66
2023/10/07 10:59:47;;;;;;;9.93;3.70;;;22.60;52.00;;;;;;5076468;28;20017;-66
2023/10/07 11:02:17;;;;;;;7.13;3.50;;;22.50;52.00;;;;;;5058266;28;20112;-66
2023/10/07 11:04:55;;;;;;;8.60;3.90;;;22.10;53.10;;;;;;5076234;28;20020;-66
2023/10/07 11:07:24;;;;;;;7.20;3.58;;;21.70;54.60;;;;;;5076411;28;20447;-66
2023/10/07 11:09:54;;;;;;;8.82;3.83;;;22.20;54.50;;;;;;5076408;28;20033;-66
2023/10/07 11:12:26;;;;;;;9.82;3.90;;;22.90;53.40;;;;;;5076490;28;20380;-66
2023/10/07 11:15:03;;;;;;;9.70;4.07;;;23.40;52.60;;;;;;5058261;28;20119;-66
2023/10/07 11:17:29;;;;;;;9.55;3.80;;;24.20;51.50;;;;;;5076741;28;20079;-66
2023/10/07 11:19:54;;;;;;;8.93;4.25;;;24.70;49.40;;;;;;5076189;28;20060;-66
2023/10/07 11:22:21;;;;;;;6.80;3.38;;;24.50;48.50;;;;;;5075633;28;20435;-66
2023/10/07 11:24:50;;;;;;;5.97;3.75;;;25.00;48.40;;;;;;5075505;28;20078;-64
2023/10/07 11:27:23;;;;;;;6.65;3.75;;;25.90;47.40;;;;;;5057914;28;20024;-66
2023/10/07 11:30:02;;;;;;;10.48;3.80;;;26.40;45.80;;;;;;5076147;28;20024;-67
2023/10/07 11:32:33;;;;;;;6.28;3.67;;;26.90;45.60;;;;;;5076069;28;20073;-66
2023/10/07 11:34:59;;;;;;;10.23;3.72;;;26.50;44.30;;;;;;5075839;28;20028;-66
2023/10/07 11:37:27;;;;;;;6.15;3.70;;;26.20;44.50;;;;;;5075359;28;20392;-64
2023/10/07 11:39:53;;;;;;;5.23;3.27;;;25.60;45.10;;;;;;5057499;28;20125;-65
2023/10/07 11:42:21;;;;;;;4.95;3.00;;;25.70;45.00;;;;;;5075155;28;20042;-65
2023/10/07 11:44:54;;;;;;;6.55;2.95;;;25.80;42.60;;;;;;5058233;28;20025;-64
2023/10/07 11:47:20;;;;;;;9.65;2.95;;;25.80;41.10;;;;;;5057889;28;20035;-65
2023/10/07 11:49:47;;;;;;;4.68;2.88;;;26.00;39.80;;;;;;5059222;28;20487;-67
2023/10/07 11:52:14;;;;;;;4.63;2.53;;;25.90;40.70;;;;;;5076584;28;20376;-67
2023/10/07 11:54:40;;;;;;;4.85;2.53;;;25.40;40.10;;;;;;5076186;28;20028;-64
2023/10/07 11:57:06;;;;;;;5.20;2.75;;;25.90;40.70;;;;;;5075961;28;20036;-65
2023/10/07 11:59:36;;;;;;;7.40;2.88;;;26.90;39.60;;;;;;5075827;28;20031;-65
2023/10/07 12:02:09;;;;;;;6.22;3.15;;;27.60;39.00;;;;;;5070384;28;20021;-65
2023/10/07 12:04:39;;;;;;;5.35;3.05;;;28.00;38.40;;;;;;5046554;28;20469;-65
2023/10/07 12:07:07;;;;;;;4.45;2.67;;;28.50;37.90;;;;;;5037727;28;20037;-65
2023/10/07 12:09:34;;;;;;;8.27;2.83;;;29.00;36.20;;;;;;5055691;28;20033;-65
2023/10/07 12:11:59;;;;;;;7.32;2.92;;;29.10;34.50;;;;;;5037893;28;20025;-71
2023/10/07 12:14:27;;;;;;;5.50;2.75;;;28.00;34.00;;;;;;5055722;28;20083;-61
2023/10/07 12:16:53;;;;;;;4.28;2.60;;;27.30;36.10;;;;;;5055290;28;20036;-61
2023/10/07 12:19:19;;;;;;;4.25;2.10;;;26.90;37.20;;;;;;5054809;28;20025;-61
2023/10/07 12:21:47;;;;;;;4.95;2.70;;;26.80;36.50;;;;;;5054861;28;20457;-61
2023/10/07 12:24:16;;;;;;;6.85;2.22;;;26.70;36.10;;;;;;5054623;28;20071;-61
2023/10/07 12:26:45;;;;;;;4.05;2.70;;;26.80;36.50;;;;;;5053780;28;20493;-61
2023/10/07 12:29:11;;;;;;;3.33;2.08;;;27.00;36.70;;;;;;5054333;28;20036;-61
2023/10/07 12:31:37;;;;;;;4.22;2.10;;;26.80;36.70;;;;;;5054447;28;20080;-61
2023/10/07 12:34:05;;;;;;;8.55;2.78;;;26.90;36.40;;;;;;5054357;28;20053;-59
2023/10/07 12:36:31;;;;;;;6.75;2.70;;;27.00;36.20;;;;;;5053944;28;20416;-59
2023/10/07 12:38:56;;;;;;;9.30;2.50;;;27.00;35.80;;;;;;5054398;28;20021;-77
2023/10/07 12:41:22;;;;;;;4.00;2.10;;;26.50;34.90;;;;;;5037411;28;20442;-74
2023/10/07 12:43:47;;;;;;;5.20;2.13;;;26.40;35.20;;;;;;5036879;28;20025;-70
2023/10/07 12:46:14;;;;;;;5.43;2.60;;;26.20;35.80;;;;;;5036393;28;20029;-62
2023/10/07 12:48:40;;;;;;;7.20;2.22;;;26.30;36.30;;;;;;5054325;28;20052;-62
2023/10/07 12:51:07;;;;;;;8.65;2.42;;;26.90;36.30;;;;;;5054326;28;20084;-62
2023/10/07 12:53:35;;;;;;;6.05;2.35;;;27.20;35.10;;;;;;5036811;28;20369;-62
2023/10/07 12:56:12;;;;;;;4.68;2.05;;;27.20;35.80;;;;;;5053864;28;20481;-64
2023/10/07 12:58:39;;;;;;;3.90;2.03;;;26.90;35.20;;;;;;5036004;28;20025;-64
2023/10/07 13:01:11;;;;;;;4.35;2.38;;;26.90;34.90;;;;;;5053293;28;20021;-66
2023/10/07 13:03:39;;;;;;;3.83;2.55;;;27.00;35.20;;;;;;5067410;28;20017;-65
2023/10/07 13:06:08;;;;;;;7.32;2.88;;;27.00;35.20;;;;;;5036203;28;20029;-65
2023/10/07 13:08:34;;;;;;;3.83;2.17;;;26.60;35.50;;;;;;5053986;28;20017;-67
2023/10/07 13:11:00;;;;;;;6.60;2.55;;;26.40;35.80;;;;;;5054215;28;20520;-65
2023/10/07 13:13:29;;;;;;;4.50;2.50;;;26.10;36.10;;;;;;5036207;28;20032;-67
2023/10/07 13:15:56;;;;;;;4.97;2.53;;;26.40;36.40;;;;;;5053819;28;20079;-67
2023/10/07 13:18:24;;;;;;;3.80;2.50;;;26.70;37.10;;;;;;5054105;28;20028;-66
2023/10/07 13:20:49;;;;;;;4.82;2.55;;;26.00;36.90;;;;;;5053818;28;20025;-65
2023/10/07 13:23:15;;;;;;;4.65;2.63;;;25.90;37.90;;;;;;5053816;28;20476;-67
2023/10/07 13:25:45;;;;;;;6.63;2.50;;;26.00;38.00;;;;;;5053852;28;20096;-67
2023/10/07 13:28:11;;;;;;;5.65;2.42;;;25.80;38.50;;;;;;5035740;28;20114;-67
2023/10/07 13:30:37;;;;;;;5.85;2.78;;;25.60;38.60;;;;;;5053717;28;20031;-66
2023/10/07 13:33:05;;;;;;;8.55;2.78;;;26.10;38.20;;;;;;5053869;28;20053;-65
2023/10/07 13:35:32;;;;;;;5.43;2.78;;;26.30;38.40;;;;;;5053720;28;20092;-65
2023/10/07 13:37:58;;;;;;;5.22;3.05;;;26.30;38.20;;;;;;5053476;28;20335;-65
2023/10/07 13:40:24;;;;;;;5.00;2.53;;;25.60;38.90;;;;;;5042844;28;20032;-65
2023/10/07 13:42:54;;;;;;;9.60;2.60;;;25.70;39.40;;;;;;5060665;28;20021;-65
2023/10/07 13:45:21;;;;;;;5.85;2.30;;;25.80;39.30;;;;;;5042128;28;20027;-66
2023/10/07 13:47:47;;;;;;;6.43;2.90;;;24.80;39.80;;;;;;5060284;28;20028;-65
2023/10/07 13:50:14;;;;;;;6.60;2.70;;;24.30;40.90;;;;;;5059903;28;20112;-66
2023/10/07 13:52:51;;;;;;;6.55;2.83;;;23.90;41.60;;;;;;5042010;28;20037;-66
2023/10/07 13:55:33;;;;;;;7.18;2.83;;;23.30;42.20;;;;;;5060319;28;20465;-66
2023/10/07 13:58:04;;;;;;;6.53;2.60;;;22.90;43.00;;;;;;5042953;28;20098;-66